»·PEaware :: AWE2180 KPHX-KSJC

AWE2180 :: KPHX-KSJC

FLIGHT INFORMATION

Flight Status: Arrived
Operator:
US Airways
More flights by this operator :: More flights under this callsign
Pilot: Jim M. (18055)
Aircraft: BOEING 757-200
(B752)
More flights by this aircraft type
Origin: KPHX Phoenix Sky Harbor Intl
United States
Destination: KSJC Mineta San Jose Intl
United States
More flights between these airports :: More routes between these airports
Route: IZZZO6 HRRBR CURIV J212 DECAS BOILE MAKRS TROXX SILCN4
File this flight plan on PilotEdge
Remarks:
Altitude:
(Current/Filed)
34,000ft
Speed:
(Current/Filed)
450kts
Departed: 04-May-18 09:34 AM
Arrived: 04-May-18 11:05 AM
Distance/Time
Traveled:
539nm/1:31
Distance/Time
To Go:
Arrived

Flight Plot

Page will automatically refresh every two minutes.

Flight plan parsing failed; only flown route is shown


Map Options




Map Legend


Flown Route
Filed Route
Departure Airport
Arrival Airport
Navaid (VOR, NDB)
Fix

Horizontal Profiles

Position Reports

Time Latitude Longitude Heading Altitude Ground
Speed
04-May-18 08:50 33.437605 -112.002470 90 1145ft 0kts
04-May-18 08:51 33.437605 -112.002470 90 1145ft 0kts
04-May-18 08:52 33.437605 -112.002470 90 1145ft 0kts
04-May-18 08:53 33.437605 -112.002470 90 1145ft 0kts
04-May-18 08:54 33.437605 -112.002470 90 1145ft 0kts
04-May-18 08:55 33.437605 -112.002470 90 1145ft 0kts
04-May-18 08:56 33.437605 -112.002470 90 1145ft 0kts
04-May-18 08:57 33.437605 -112.002470 90 1145ft 0kts
04-May-18 08:58 33.437605 -112.002470 90 1145ft 0kts
04-May-18 08:59 33.437605 -112.002470 90 1145ft 0kts
04-May-18 09:00 33.437605 -112.002470 90 1145ft 0kts
04-May-18 09:01 33.437605 -112.002470 90 1145ft 0kts
04-May-18 09:02 33.437605 -112.002470 90 1145ft 0kts
04-May-18 09:03 33.437605 -112.002470 90 1145ft 0kts
04-May-18 09:04 33.437605 -112.002470 90 1145ft 0kts
04-May-18 09:05 33.437605 -112.002470 90 1145ft 0kts
04-May-18 09:06 33.437605 -112.002470 90 1145ft 0kts
04-May-18 09:07 33.437605 -112.002470 90 1145ft 0kts
04-May-18 09:08 33.437605 -112.002470 90 1145ft 0kts
04-May-18 09:09 33.437605 -112.002470 90 1145ft 0kts
04-May-18 09:10 33.437605 -112.002470 90 1145ft 0kts
04-May-18 09:11 33.437605 -112.002470 90 1145ft 0kts
04-May-18 09:12 33.437605 -112.002470 90 1145ft 0kts
04-May-18 09:13 33.437605 -112.002470 90 1145ft 0kts
04-May-18 09:14 33.437605 -112.002470 90 1145ft 0kts
04-May-18 09:15 33.437605 -112.002470 90 1145ft 0kts
04-May-18 09:16 33.437605 -112.002470 90 1145ft 0kts
04-May-18 09:17 33.437605 -112.002470 90 1145ft 0kts
04-May-18 09:18 33.437605 -112.002470 90 1145ft 0kts
04-May-18 09:18 33.437572 -112.002787 69 1145ft 2kts
04-May-18 09:19 33.437209 -112.003042 0 1145ft 0kts
04-May-18 09:20 33.437209 -112.003042 0 1145ft 0kts
04-May-18 09:21 33.437209 -112.003042 0 1145ft 0kts
04-May-18 09:22 33.437209 -112.003042 0 1145ft 0kts
04-May-18 09:23 33.437893 -112.003066 1 1145ft 0kts
04-May-18 09:24 33.438027 -112.003058 3 1145ft 4kts
04-May-18 09:25 33.439274 -112.003612 331 1145ft 11kts
04-May-18 09:26 33.439759 -112.006867 271 1145ft 15kts
04-May-18 09:27 33.439730 -112.011079 272 1145ft 16kts
04-May-18 09:28 33.439724 -112.015182 269 1145ft 16kts
04-May-18 09:29 33.439723 -112.022397 270 1145ft 15kts
04-May-18 09:30 33.439725 -112.028440 266 1145ft 14kts
04-May-18 09:31 33.439702 -112.029145 278 1145ft 0kts
04-May-18 09:32 33.440529 -112.029506 58 1145ft 4kts
04-May-18 09:33 33.440982 -112.005883 85 1287ft 157kts
04-May-18 09:34 33.438731 -111.944359 91 3430ft 208kts
04-May-18 09:35 33.429645 -111.870417 116 6074ft 236kts
04-May-18 09:36 33.369156 -111.852595 208 8658ft 259kts
04-May-18 09:37 33.355904 -111.931610 286 10947ft 275kts
04-May-18 09:38 33.370619 -112.028469 281 12883ft 321kts
04-May-18 09:39 33.386764 -112.142638 281 14708ft 375kts
04-May-18 09:40 33.404471 -112.269543 281 17574ft 393kts
04-May-18 09:41 33.422692 -112.400757 281 20363ft 406kts
04-May-18 09:42 33.441260 -112.535661 281 22861ft 416kts
04-May-18 09:43 33.452351 -112.675572 272 25104ft 429kts
04-May-18 09:44 33.455522 -112.819682 280 26992ft 437kts
04-May-18 09:45 33.483075 -112.962190 284 28808ft 443kts
04-May-18 09:46 33.510338 -113.108105 283 30555ft 447kts
04-May-18 09:47 33.536913 -113.252366 283 32568ft 440kts
04-May-18 09:48 33.563002 -113.394603 283 34143ft 433kts
04-May-18 09:49 33.588646 -113.535030 283 34207ft 431kts
04-May-18 09:50 33.614849 -113.675283 284 34206ft 431kts
04-May-18 09:51 33.640926 -113.816134 284 34234ft 431kts
04-May-18 09:52 33.666781 -113.956623 284 34235ft 432kts
04-May-18 09:53 33.692517 -114.097291 284 34229ft 432kts
04-May-18 09:54 33.718174 -114.238515 283 34226ft 432kts
04-May-18 09:55 33.743595 -114.379393 283 34221ft 433kts
04-May-18 09:56 33.768904 -114.520642 283 34215ft 433kts
04-May-18 09:57 33.780781 -114.665133 274 34215ft 435kts
04-May-18 09:58 33.788410 -114.810097 275 34216ft 435kts
04-May-18 09:59 33.796697 -114.955203 275 34219ft 435kts
04-May-18 10:00 33.804718 -115.100838 275 34224ft 436kts
04-May-18 10:01 33.812567 -115.246251 275 34232ft 436kts
04-May-18 10:02 33.820247 -115.391689 275 34239ft 437kts
04-May-18 10:03 33.840951 -115.535152 288 34244ft 435kts
04-May-18 10:04 33.876854 -115.673739 287 34242ft 435kts
04-May-18 10:05 33.910967 -115.815331 287 34244ft 440kts
04-May-18 10:06 33.945087 -115.956786 287 34252ft 440kts
04-May-18 10:07 33.979034 -116.098358 287 34269ft 440kts
04-May-18 10:08 34.012926 -116.240499 287 34287ft 440kts
04-May-18 10:09 34.046559 -116.382346 287 34294ft 440kts
04-May-18 10:10 34.080017 -116.524244 286 34308ft 441kts
04-May-18 10:11 34.113471 -116.666956 286 34361ft 441kts
04-May-18 10:12 34.146615 -116.809148 286 34419ft 440kts
04-May-18 10:13 34.179639 -116.951634 286 34439ft 441kts
04-May-18 10:14 34.212611 -117.094733 286 34371ft 441kts
04-May-18 10:15 34.245305 -117.237446 286 34304ft 441kts
04-May-18 10:16 34.277895 -117.380548 286 34286ft 442kts
04-May-18 10:17 34.310419 -117.524209 286 34283ft 442kts
04-May-18 10:18 34.342663 -117.667479 285 34284ft 442kts
04-May-18 10:19 34.374849 -117.811341 285 34292ft 442kts
04-May-18 10:20 34.406762 -117.954843 285 34292ft 442kts
04-May-18 10:21 34.456415 -118.092333 304 34308ft 464kts
04-May-18 10:23 34.533105 -118.222846 304 34318ft 478kts
04-May-18 10:24 34.602990 -118.348629 303 34316ft 438kts
04-May-18 10:25 34.671135 -118.471317 303 34337ft 439kts
04-May-18 10:26 34.739384 -118.594560 303 34384ft 439kts
04-May-18 10:27 34.807342 -118.717723 303 34409ft 439kts
04-May-18 10:28 34.875174 -118.841081 303 34401ft 439kts
04-May-18 10:29 34.943321 -118.965445 303 34396ft 439kts
04-May-18 10:30 35.010967 -119.089334 303 34396ft 439kts
04-May-18 10:31 35.078417 -119.213297 302 34396ft 438kts
04-May-18 10:32 35.145813 -119.337602 302 34328ft 438kts
04-May-18 10:33 35.213035 -119.462021 302 34296ft 439kts
04-May-18 10:34 35.280153 -119.586693 302 34293ft 439kts
04-May-18 10:35 35.347407 -119.712061 302 34296ft 439kts
04-May-18 10:36 35.414283 -119.837173 302 34294ft 439kts
04-May-18 10:37 35.481274 -119.962957 302 34276ft 439kts
04-May-18 10:38 35.547897 -120.088498 301 34277ft 439kts
04-May-18 10:39 35.614404 -120.214278 301 34277ft 439kts
04-May-18 10:40 35.681010 -120.340694 301 34284ft 439kts
04-May-18 10:41 35.747706 -120.466373 302 34180ft 439kts
04-May-18 10:42 35.814329 -120.592256 302 33195ft 440kts
04-May-18 10:43 35.881052 -120.718830 301 32639ft 436kts
04-May-18 10:44 35.946259 -120.842978 301 31507ft 427kts
04-May-18 10:45 36.012150 -120.963498 310 30500ft 421kts
04-May-18 10:46 36.102650 -121.051593 322 28453ft 403kts
04-May-18 10:47 36.190236 -121.134309 320 26475ft 391kts
04-May-18 10:48 36.275560 -121.215932 320 24546ft 382kts
04-May-18 10:49 36.358547 -121.295433 320 22598ft 374kts
04-May-18 10:50 36.439244 -121.373202 320 20639ft 362kts
04-May-18 10:51 36.521713 -121.442453 337 19058ft 357kts
04-May-18 10:52 36.616736 -121.480296 340 16727ft 352kts
04-May-18 10:53 36.707590 -121.518948 340 14784ft 341kts
04-May-18 10:54 36.796857 -121.556792 340 12887ft 335kts
04-May-18 10:55 36.884104 -121.593904 341 10991ft 321kts
04-May-18 10:56 36.963847 -121.627820 341 9340ft 301kts
04-May-18 10:57 37.041844 -121.660939 341 6500ft 287kts
04-May-18 10:58 37.114357 -121.691798 341 4655ft 269kts
04-May-18 10:59 37.175806 -121.728137 322 4003ft 232kts
04-May-18 11:00 37.220216 -121.774312 318 3500ft 192kts
04-May-18 11:01 37.257052 -121.814330 318 2634ft 167kts
04-May-18 11:02 37.287844 -121.847954 317 1872ft 138kts
04-May-18 11:03 37.315798 -121.878541 316 1169ft 133kts
04-May-18 11:04 37.343757 -121.909098 318 440ft 129kts
04-May-18 11:05 37.365895 -121.933305 328 73ft 33kts
04-May-18 11:06 37.367876 -121.933708 48 72ft 6kts
04-May-18 11:07 37.369777 -121.931620 329 72ft 16kts
04-May-18 11:08 37.370729 -121.932127 45 72ft 0kts
04-May-18 11:09 37.370734 -121.932121 45 72ft 0kts
04-May-18 11:10 37.370743 -121.932108 46 72ft 1kts
04-May-18 11:11 37.370365 -121.930800 40 72ft 0kts
04-May-18 11:12 37.370637 -121.930472 48 72ft 0kts

Navigation Log

Ident Type
Flight plan parsing failed, navigation log unavailable